Besse sur Issole             Juillet 2002                                                                                                                                                                                                                                                                                                                                                                                                                                                                                  
  Températures (°C) Humidité Vent  (km/h) Précipitations Pression (hPa) Divers  
Date Max Min Moy de 288 relevés Moy (tx+tn)/2 Index chaleur moyen Index chaleur maxi Froid du au vent moy Froid du au vent moy mini  Tx-Tn Relative maxi Relative mini Relative moy de 288 relevés Relative moy (hx+hn)/2 Point de rosée maxi Point de rosée mini Point de rosée moyen Vent  moy maxi (10mn) Vent  moyen (24h) Direction dominante Rafales (km/h) maxi Direction rafale maxi Rafales moy Total Du jour (mm) Durée (h) Intensité maxi (mm/h) Maxi Mini Moy de 288 relevés Moy (px+pn)/2 Variation Epaisseur neige Remarques diverses    
01/07/02 25,1 10,4 18,72 17,25 18,46 23,9 18,70 10,4 14,7 88% 38% 59,0% 63,0% 12,7 8,0 10,01 12,9 3,65 SW 25,7 SW 7,22 0,0 0,00 0,0 1017,2 1012,2 1014,5 1014,7 5,0   Ciel entre 7/8 et 2/8  
02/07/02 32,5 15,3 23,28 23,90 22,78 30,2 22,81 14,4 17,2 69% 24% 44,3% 46,5% 12,3 6,8 9,76 24,1 11,09 WNW 45,1 NW 20,46 0,0 0,00 0,0 1012,2 1008,7 1010,4 1010,5 3,5   Ciel entre 2/8 et 0/8, mistral modéré  
03/07/02 30,4 14,7 22,13 22,55 22,21 29,6 20,83 14,7 15,7 74% 35% 54,7% 54,5% 16,1 9,3 12,37 30,6 13,19 WNW 51,5 NW 22,96 0,0 0,00 0,0 1012,7 1010,3 1011,3 1011,5 2,4   Ciel entre 0/8 et 6/8 en fin d'AM, mistral modéré en soirée  
04/07/02 29,6 16,3 21,52 22,95 21,18 27,4 18,83 9,4 13,3 56% 24% 39,5% 40,0% 9,3 4,9 6,78 37,0 19,72 WNW 64,4 NW 35,87 0,0 0,00 0,0 1015,5 1012,1 1013,4 1013,8 3,4   Ciel entre 0/8 et 3/8, vent d'WNW à NW fort la nuit et le matin, 64,4 km/h maxi  
05/07/02 29,0 9,8 19,87 19,40 19,86 27,6 19,70 10,1 19,2 77% 25% 51,1% 51,0% 14,1 4,9 9,05 14,5 6,22 NE 29,0 WSW 11,85 0,2 0,00 0,0 1016,1 1014,3 1015,2 1015,2 1,8   Ciel 0/8  
06/07/02 27,3 13,8 19,67 20,55 19,67 26,7 18,46 11,4 13,5 92% 36% 59,3% 64,0% 16,9 7,8 11,09 27,4 11,89 WNW 53,1 NW 21,95 1,4 0,42 7,2 1016,4 1013,7 1014,9 1015,1 2,7   Ciel entre 8/8 et 0/8, très courtes averses le matin, mistral modéré l'AM  
07/07/02 30,0 12,7 21,10 21,30 21,13 29,2 20,97 12,8 17,2 79% 30% 53,5% 54,5% 14,7 7,5 10,85 22,5 6,72 WSW 35,4 WSW 12,41 0,0 0,00 0,0 1018,0 1015,6 1016,6 1016,8 2,4   Ciel entre 0/8 et 1/8  
08/07/02 30,6 10,6 21,08 20,70 20,89 29,7 21,05 10,7 20,0 86% 31% 54,3% 58,5% 13,8 8,3 10,38 19,3 6,45 WSW 40,2 SE 11,79 0,0 0,00 0,0 1018,1 1015,0 1016,1 1005,8 3,1   Ciel entre 0/8 et 2/8 le soir  
09/07/02 31,2 13,7 20,89 22,45 20,83 29,7 20,66 12,7 17,5 91% 27% 59,3% 59,0% 18,9 9,1 11,72 17,7 7,13 SW 38,6 ENE 13,01 1,3 0,25 7,2 1016,4 1011,5 1013,1 1014,0 4,9   Orage à 5h45 TU avec quelques gouttes 0,0 mm et une coupure de courant, un autre orage à 8h TU avec une très courte averse de pluie forte à 23,9 mm/h sur 1 mn, petite rafale de NE à 38,6 km/h sous l'orage, ciel 8/8 à 0/8 l'AM  
10/07/02 31,7 12,6 22,16 22,15 22,36 30,3 21,89 12,4 19,1 87% 32% 57,0% 59,5% 18,0 9,9 12,59 19,3 7,76 SW 32,2 WNW 14,55 0,0 0,00 0,0 1014,7 1011,1 1012,2 1012,9 3,6   Ciel entre 5/8 et 1/8, Tx tardive à 16h20 TU avec le vent a tourné au mistral faible  
11/07/02 34,3 17,7 25,64 26,00 24,76 31,9 25,05 15,4 16,6 64% 19% 37,1% 41,5% 12,2 4,8 8,82 20,9 12,14 WNW 37,0 WNW 23,23 0,0 0,00 0,0 1017,1 1014,5 1015,8 1015,8 2,6   Ciel entre 0/8 et 1/8, vent d'W à WNW modéré  
12/07/02 33,8 19,6 25,36 26,70 24,91 33,3 24,64 16,8 14,2 76% 22% 43,3% 49,0% 15,5 7,8 11,34 29,0 12,12 SW 61,2 WNW 22,74 0,4 0,17 2,4 1016,9 1013,7 1015,5 1015,3 3,2   Ciel entre 0/8 et 8/8 le soir avec l'arrivée d'un très petit passage pluvieux précédé de vent fort d'WNW (61,2 km/h)  
13/07/02 30,3 17,2 22,83 23,75 22,60 28,3 20,45 13,4 13,1 67% 25% 45,9% 46,0% 14,5 4,3 10,05 30,6 19,48 WNW 57,9 WNW 35,93 0,2 0,08 2,4 1013,8 1010,1 1011,6 1012,0 3,7   Ciel entre 1/8 et 5/8, vent fort d'WNW (57,9 km/h)  
14/07/02 17,8 13,4 15,42 15,60 15,48 17,3 15,27 9,6 4,4 98% 56% 93,4% 77,0% 16,6 8,3 14,37 14,5 4,01 N 27,4 WNW 8,53 34,8 8,33 26,4 1013,5 1009,7 1011,9 1011,6 3,8   Ciel 7/8 à 8/8. orage violent de la Garde Freinet entendu vers 00h15 TU, tonnerre permanent pendant 45 mn avec des impacts toutes les secondes et parfois plusieurs par secondes, son particulier indiquant la puissance. Ciel embrasé d'éclairs en permanence. des impacts plus proches par la suite sous les résidus de cet orage se déplaçant vers ici, La pluie a débuté vers 1h30 TU, intensité maxi à 26,4 mm/h sur 5 mn, 70 mm/h sur une minute, cumul 10 mm avant 8h, autres orages à l'E le matin et en début d'AM  
15/07/02 19,1 13,6 16,11 16,35 16,19 18,6 16,07 12,6 5,5 99% 87% 95,7% 93,0% 17,5 13,3 15,48 11,3 2,65 N 20,9 WNW 5,88 7,4 2,83 4,8 1012,6 1009,3 1010,5 1011,0 3,3   Ciel entre 7/8 et 8/8, pluie faible toute la journée  
16/07/02 26,2 13,1 18,39 19,65 18,67 26,6 18,14 13,2 13,1 100% 54% 86,6% 77,0% 19,6 13,0 15,99 19,3 4,59 WSW 33,8 SW 9,77 9,6 0,67 31,2 1011,0 1009,9 1010,5 1010,5 1,1   Ciel entre 2/8 et 8/8, orage fabilement électrique à 13h45 TU avec forte averse, 8 mm en 20 mn à 56,6 mm/h maxi sur 1 mn  
17/07/02 29,5 14,8 21,97 22,15 22,35 30,1 20,68 13,4 14,7 96% 47% 65,2% 71,5% 18,4 12,1 14,85 25,7 13,52 WNW 43,5 WNW 25,33 0,0 0,00 0,0 1011,0 1008,6 1009,8 1009,8 2,4   Ciel entre 4/8 et 1/8, Mistral modéré  
18/07/02 29,2 14,5 21,36 22,05 21,88 30,3 21,34 14,5 14,7 96% 44% 70,6% 70,0% 19,1 11,6 15,53 14,5 5,51 NE 30,6 ENE 11,30 0,0 0,00 0,0 1012,1 1008,4 1010,3 1010,3 3,7   Ciel entre 0/8 et 3/8  
19/07/02 29,2 14,6 21,38 21,90 21,94 29,6 21,21 14,6 14,6 100% 45% 75,8% 72,5% 19,9 14,2 16,52 17,7 6,06 SW 35,4 SW 11,84 0,0 0,00 0,0 1016,5 1011,9 1013,5 1014,2 4,6   Ciel entre 0/8 et 2/8  
20/07/02 31,9 13,2 21,90 22,50 22,31 32,4 21,87 13,2 18,6 99% 36% 70,9% 67,5% 19,2 12,8 15,54 17,7 5,69 SW 32,2 SW 10,86 0,2 0,08 2,4 1018,0 1015,8 1016,8 1016,9 2,2   Ciel entre 0/8 et 1/8  
21/07/02 30,0 14,8 21,80 22,40 22,27 31,1 21,54 14,0 15,2 93% 42% 68,6% 67,5% 19,5 13,3 15,39 20,9 7,72 SW 41,8 SW 14,33 0,0 0,00 0,0 1017,6 1014,3 1016,1 1016,0 3,3   Ciel entre 3/8 et 1/8, vent de SW modéré  
22/07/02 36,1 15,0 24,85 25,55 24,55 33,9 24,93 15,1 21,1 95% 14% 57,0% 54,5% 18,3 3,1 12,79 24,1 7,65 WSW 40,2 WNW 13,52 0,0 0,00 0,0 1015,9 1012,0 1013,8 1014,0 3,9   Ciel 0/8, vent d'WNW modéré  
23/07/02 31,7 14,1 21,91 22,90 22,91 34,0 21,86 14,1 17,6 95% 51% 78,1% 73,0% 20,7 12,8 17,71 20,9 5,77 SW 33,8 WSW 10,60 0,0 0,00 0,0 1014,5 1012,7 1013,5 1013,6 1,8   Ciel entre 1/8 et 6/8 le matin  
24/07/02 32,3 15,2 23,30 23,75 22,87 30,3 21,85 14,8 17,1 95% 28% 50,3% 61,5% 16,5 5,9 11,07 37,0 18,22 WNW 69,2 WNW 33,51 0,2 0,08 2,4 1013,1 1008,5 1011,2 1010,8 4,6   Ciel entre 0/8 et 4/8, vent d'WNW fort 69,2 km/h, ciel 5/8 en fin d'AM avec des pyrostratus parfois épais venant probablement du secteur de Manosque, forte odeur de brûlé  
25/07/02 30,8 16,3 22,93 23,55 22,42 28,9 20,44 11,4 14,5 60% 26% 41,6% 43,0% 12,3 6,6 8,91 35,4 18,67 NW 67,6 NW 34,86 0,0 0,00 0,0 1012,6 1009,0 1011,0 1010,8 3,6   Ciel entre 6/8 et 0/8 le soir, mistral fort en fin de nuit 67,6 km/h faiblissant dans la journée  
26/07/02 31,0 15,7 22,80 23,35 21,94 29,2 21,68 15,4 15,3 77% 30% 47,0% 53,5% 12,8 6,7 9,99 20,9 8,73 SW 37,0 SW 16,50 0,0 0,00 0,0 1016,5 1012,1 1014,0 1014,3 4,4   Ciel entre 0/8 et 2/8 avec la brise de mer, départ d'incendie de forêt à 3 km à l'W de la station sur les premières hauteurs de Besse (secteur habité en pinéde), maitrisé en  45 mn avec 3 hélicos  
27/07/02 30,7 12,7 22,06 21,70 21,94 29,7 21,98 13,3 18,0 86% 30% 56,3% 58,0% 15,8 8,8 11,92 22,5 6,72 SW 37,0 SW 12,33 0,0 0,00 0,0 1017,4 1014,6 1016,2 1016,0 2,8   Ciel entre 0/8 et 1/8, brise modérée de SW  
28/07/02 31,4 15,3 22,72 23,35 22,92 30,7 22,76 15,4 16,1 85% 32% 61,2% 58,5% 17,1 10,4 14,14 17,7 5,02 SW 41,8 SSW 10,24 0,0 0,00 0,0 1018,5 1016,4 1017,4 1017,5 2,1   Ciel entre 0/8 et 5/8 d'enclume CB en fin d'AM  
29/07/02 31,6 15,2 23,60 23,40 23,85 30,9 23,47 15,3 16,4 92% 35% 61,7% 63,5% 18,4 12,6 15,05 20,9 6,76 SW 37,0 SW 12,92 0,0 0,00 0,0 1018,0 1014,1 1016,0 1016,1 3,9   Ciel entre 0/8 et 8/8 en fin d'AM. Orage avec tonnerre lointain à 15h15 TU, Quelques gouttes  vers 18h55 TU. Départ d'incendie vers 16h15TU à environ 5 km à l'WSW, probablement à la limite de Besse et St Anastasie.  
30/07/02 31,1 16,4 22,53 23,75 23,02 32,2 22,54 16,5 14,7 88% 44% 68,1% 66,0% 18,8 14,3 15,98 19,3 4,58 NE 38,6 NW 9,23 0,0 0,00 0,0 1014,0 1009,4 1011,3 1011,7 4,6   Ciel entre 0/8 et 8/8, petit orage à 12h15TU vers le SSE, orages importants au loin vers l'W et le NE à 13h55 TU, 2 à 3 gouttes en soirée  
31/07/02 32,5 16,3 22,74 24,40 23,11 31,2 22,60 15,3 16,2 88% 29% 63,8% 58,5% 18,9 11,1 15,03 24,1 7,42 WNW 38,6 WNW 13,77 0,3 0,08 2,4 1010,5 1007,7 1009,0 1009,1 2,8   Ciel entre 0/8 et 5/8, orage vers le SE à 15h30 TU, départ d'incendie de forêt dans le même secteur qu'avant hier, petite averse avant 6h TU le 1er  
  Températures (°C) Humidité Vent  (km/h) Pluies Pression (hPa) Divers  
  Max Min Moy de 288 relevés Moy (tx+tn)/2 Index chaleur moyen Index chaleur maxi Froid du au vent moy Froid du au vent moy mini  Tx-Tn Relative maxi Relative mini Relative moy de 288 relevés Relative moy (hx+hn)/2 Point de rosée maxi Point de rosée mini Point de rosée moyen Vent  moy maxi (10mn) Vent  moyen (24h) Direction dominante Rafales (km/h) maxi Direction rafale maxi Rafales moy Total Du jour (mm) Durée (h) Intensité maxi (mm/h) Maxi Mini Moy de 288 relevés Moy (px+pn)/2 Variation Epaisseur neige Remarques diverses  
Maxi 36,1 19,6 25,64 26,70 24,91 34,0 25,0 16,8 21,1 100% 87% 95,7% 93,0% 20,7 14,3 17,71 37,0 19,72 SW 69,2 WNW 35,93 34,8 8,33 31,2 1018,5 1016,4 1017,4 1017,5 5,0 0,0    
Mini 17,8 9,8 15,42 15,60 15,48 17,3 15,3 9,4 4,4 56% 14% 37,1% 40,0% 9,3 3,1 6,78 11,3 2,65   20,9   5,88       1010,5 1007,7 1009,0 1005,8 1,1    
Moy 29,9 14,5 21,68 22,19 21,69 29,2 21,1 13,4 15,5 85,4% 35,4% 60,3% 60,4% 16,4 9,2 12,61 22,3 8,93   41,2   16,75       1015,1 1011,8 1013,3 1013,1 3,3    
Total                                             56,0 13,00             0,0  
   
Observations        
Jours Rafales > 36 km/h Rafales > 57,6 km/h Rafales > 75,6 km/h Rafales > 100,8 km/h Précipi. >=0,1 mm Précipi. >=1 mm Précipi. >=5 mm Précipi. >=10 mm Tx < 0 Tx > 25 Tx > 30 Tx > 35 Tx > 40 Tn < 0 Tn < -5 Tn < -10 Tn < -15 T moy < 0 T moy < -5 T moy > 20 T moy > 25 T moy > 30 Grêle Grésil Brouillard Brume Orage Neige        
01/07/02 0 0 0 0 0 0 0 0 0 1 0 0 0 0 0 0 0 0 0 0 0 0 0 0 0 0 0 0    
02/07/02 1 0 0 0 0 0 0 0 0 1 1 0 0 0 0 0 0 0 0 1 0 0 0 0 0 0 0 0    
03/07/02 1 0 0 0 0 0 0 0 0 1 1 0 0 0 0 0 0 0 0 1 0 0 0 0 0 0 0 0    
04/07/02 1 1 0 0 0 0 0 0 0 1 0 0 0 0 0 0 0 0 0 1 0 0 0 0 0 0 0 0    
05/07/02 0 0 0 0 0 0 0 0 0 1 0 0 0 0 0 0 0 0 0 0 0 0 0 0 0 0 0 0    
06/07/02 1 0 0 0 1 1 0 0 0 1 0 0 0 0 0 0 0 0 0 0 0 0 0 0 0 0 0 0    
07/07/02 0 0 0 0 0 0 0 0 0 1 0 0 0 0 0 0 0 0 0 1 0 0 0 0 0 0 0 0    
08/07/02 1 0 0 0 0 0 0 0 0 1 1 0 0 0 0 0 0 0 0 1 0 0 0 0 0 0 0 0    
09/07/02 1 0 0 0 1 1 0 0 0 1 1 0 0 0 0 0 0 0 0 1 0 0 0 0 0 0 1 0    
10/07/02 0 0 0 0 0 0 0 0 0 1 1 0 0 0 0 0 0 0 0 1 0 0 0 0 0 0 0 0    
11/07/02 1 0 0 0 0 0 0 0 0 1 1 0 0 0 0 0 0 0 0 1 1 0 0 0 0 0 0 0    
12/07/02 1 1 0 0 1 0 0 0 0 1 1 0 0 0 0 0 0 0 0 1 1 0 0 0 0 0 0 0    
13/07/02 1 1 0 0 1 0